Time;durP1;ratioP1;P1;durP2;ratioP2;P2;SDS_P1;SDS_P2;PMS_P1;PMS_P2;Temp;Humidity;BMP_temperature;BMP_pressure;BME280_temperature;BME280_humidity;BME280_pressure;Samples;Min_cycle;Max_cycle;Signal;HPM_P1;HPM_P2
2021/06/25 04:01:12;;;;;;;8.00;7.07;;;13.60;99.90;;;;;;5669668;22;20479;-68
2021/06/25 04:03:40;;;;;;;7.87;7.37;;;13.60;99.90;;;;;;4991268;28;20279;-69
2021/06/25 04:06:08;;;;;;;7.27;6.73;;;13.70;99.90;;;;;;4986697;28;20487;-69
2021/06/25 04:08:35;;;;;;;9.13;7.70;;;13.70;99.90;;;;;;4979230;28;20475;-69
2021/06/25 04:11:04;;;;;;;7.40;6.90;;;13.70;99.90;;;;;;4991349;28;20586;-69
2021/06/25 04:13:31;;;;;;;7.20;6.77;;;13.80;99.90;;;;;;4986436;28;20883;-68
2021/06/25 04:15:58;;;;;;;8.50;7.37;;;13.80;99.90;;;;;;4988513;28;20504;-68
2021/06/25 04:18:27;;;;;;;8.00;7.30;;;13.90;99.90;;;;;;4992084;28;20463;-68
2021/06/25 04:20:55;;;;;;;8.80;7.97;;;14.00;99.90;;;;;;4986637;28;20487;-68
2021/06/25 04:23:21;;;;;;;8.57;7.67;;;14.10;99.90;;;;;;4986984;28;20471;-68
2021/06/25 04:25:48;;;;;;;7.27;6.73;;;14.30;99.90;;;;;;4988555;28;20823;-69
2021/06/25 04:28:16;;;;;;;8.13;7.43;;;14.60;99.90;;;;;;4982668;28;20447;-69
2021/06/25 04:30:43;;;;;;;8.00;7.40;;;14.90;99.90;;;;;;4987688;28;20483;-67
2021/06/25 04:33:12;;;;;;;7.80;7.20;;;15.30;99.90;;;;;;4992414;28;20513;-68
2021/06/25 04:35:41;;;;;;;6.80;6.30;;;15.50;99.90;;;;;;4986193;28;20459;-69
2021/06/25 04:38:08;;;;;;;7.17;6.53;;;15.90;99.90;;;;;;4986852;28;20795;-69
2021/06/25 04:40:38;;;;;;;7.40;6.90;;;16.20;99.90;;;;;;4992923;28;20478;-67
2021/06/25 04:43:06;;;;;;;7.40;6.90;;;16.50;99.90;;;;;;4976799;28;20527;-67
2021/06/25 04:45:34;;;;;;;7.60;7.00;;;16.90;99.90;;;;;;4975829;28;20490;-68
2021/06/25 04:48:01;;;;;;;6.90;6.40;;;17.10;99.90;;;;;;4993494;28;20487;-70
2021/06/25 04:50:28;;;;;;;6.83;6.33;;;17.40;99.90;;;;;;4988005;28;20981;-70
2021/06/25 04:52:56;;;;;;;6.70;6.20;;;17.60;99.90;;;;;;4985999;28;20463;-71
2021/06/25 04:55:22;;;;;;;7.60;7.00;;;17.90;99.90;;;;;;4973267;28;20468;-71
2021/06/25 04:57:50;;;;;;;7.13;6.73;;;18.30;99.90;;;;;;4974682;28;20476;-69
2021/06/25 05:00:18;;;;;;;7.17;6.57;;;19.00;99.90;;;;;;4976498;28;20455;-69
2021/06/25 05:02:44;;;;;;;6.33;6.03;;;19.50;99.90;;;;;;4991752;28;20462;-68
2021/06/25 05:05:12;;;;;;;7.53;7.03;;;20.00;99.90;;;;;;4986438;28;20904;-69
2021/06/25 05:07:39;;;;;;;7.30;6.80;;;20.40;99.90;;;;;;4985025;28;20486;-70
2021/06/25 05:10:10;;;;;;;7.00;6.50;;;20.60;99.90;;;;;;4992015;28;20536;-67
2021/06/25 05:12:37;;;;;;;7.33;6.83;;;20.90;99.90;;;;;;4986068;28;20542;-68
2021/06/25 05:15:05;;;;;;;7.87;7.27;;;21.00;99.90;;;;;;4984840;28;20459;-68
2021/06/25 05:17:31;;;;;;;8.40;7.70;;;20.60;99.90;;;;;;4990529;28;20874;-68
2021/06/25 05:19:58;;;;;;;8.40;7.63;;;20.40;99.90;;;;;;4987156;28;20459;-68
2021/06/25 05:22:25;;;;;;;8.63;8.03;;;20.40;99.90;;;;;;4984138;28;20989;-68
2021/06/25 05:24:51;;;;;;;8.67;7.93;;;20.70;99.90;;;;;;4990407;28;20780;-68
2021/06/25 05:27:19;;;;;;;8.30;7.70;;;21.00;99.90;;;;;;4976443;28;20490;-68
2021/06/25 05:29:46;;;;;;;8.43;7.73;;;21.50;99.90;;;;;;4976663;28;20459;-68
2021/06/25 05:32:13;;;;;;;7.73;7.23;;;22.00;99.90;;;;;;4977235;28;20805;-68
2021/06/25 05:34:39;;;;;;;8.50;8.00;;;22.30;99.90;;;;;;4987469;28;20461;-68
2021/06/25 05:37:06;;;;;;;8.20;7.37;;;22.70;99.90;;;;;;4984457;28;20975;-68
2021/06/25 05:39:33;;;;;;;7.07;6.67;;;23.10;99.90;;;;;;4984906;28;20473;-69
2021/06/25 05:41:59;;;;;;;8.80;8.10;;;23.20;99.90;;;;;;4986772;28;20483;-69
2021/06/25 05:44:27;;;;;;;9.63;8.40;;;23.00;99.90;;;;;;4984160;28;20485;-68
2021/06/25 05:46:54;;;;;;;8.47;7.83;;;23.20;99.90;;;;;;4989853;28;21000;-66
2021/06/25 05:49:21;;;;;;;7.53;7.03;;;23.30;99.90;;;;;;4987849;28;20462;-68
2021/06/25 05:51:49;;;;;;;8.27;7.57;;;23.50;99.90;;;;;;4984326;28;20480;-68
2021/06/25 05:54:16;;;;;;;8.90;8.20;;;23.50;99.90;;;;;;4989766;28;20485;-68
2021/06/25 05:56:42;;;;;;;7.97;7.30;;;23.80;99.90;;;;;;4975047;28;20461;-71
2021/06/25 05:59:09;;;;;;;5.07;4.87;;;24.10;99.90;;;;;;4982925;28;20470;-71
2021/06/25 06:01:37;;;;;;;5.93;5.63;;;23.90;99.90;;;;;;4977848;28;20492;-71
2021/06/25 06:04:04;;;;;;;6.20;5.80;;;23.90;99.90;;;;;;4974040;28;20472;-72
2021/06/25 06:06:30;;;;;;;5.97;5.70;;;24.30;99.90;;;;;;4982935;28;20471;-69
2021/06/25 06:08:57;;;;;;;5.50;5.30;;;24.70;99.90;;;;;;4971751;28;20488;-70
2021/06/25 06:11:24;;;;;;;4.70;4.50;;;25.20;99.90;;;;;;4979736;28;21046;-69
2021/06/25 06:13:50;;;;;;;5.80;5.37;;;25.00;99.90;;;;;;4973962;28;20493;-68
2021/06/25 06:16:17;;;;;;;6.00;5.33;;;25.60;99.90;;;;;;4982671;28;20481;-68
2021/06/25 06:18:46;;;;;;;5.80;5.50;;;25.80;99.50;;;;;;4994318;28;20461;-69
2021/06/25 06:21:14;;;;;;;5.90;5.50;;;25.60;99.30;;;;;;4991271;28;20565;-69
2021/06/25 06:31:58;;;;;;;6.87;6.53;;;25.50;99.90;;;;;;4976931;28;20474;-69
2021/06/25 06:34:26;;;;;;;8.07;7.63;;;25.30;99.90;;;;;;4976273;28;20467;-69
2021/06/25 06:36:53;;;;;;;6.57;6.17;;;25.00;99.90;;;;;;4986765;28;20878;-68
2021/06/25 06:39:21;;;;;;;6.17;5.80;;;25.20;99.90;;;;;;4996003;28;20822;-68
2021/06/25 06:41:48;;;;;;;4.80;4.53;;;25.30;99.90;;;;;;4993214;28;21027;-68
2021/06/25 06:44:14;;;;;;;6.17;5.57;;;25.00;99.70;;;;;;4984593;28;20482;-69
2021/06/25 06:46:41;;;;;;;4.40;4.10;;;25.00;99.90;;;;;;4978071;28;20462;-68
2021/06/25 06:49:08;;;;;;;4.87;4.70;;;25.20;99.70;;;;;;4975873;28;20466;-69
2021/06/25 06:51:36;;;;;;;4.73;4.63;;;25.30;99.90;;;;;;4978253;28;20485;-68
2021/06/25 06:54:03;;;;;;;4.83;4.63;;;25.70;99.60;;;;;;4991548;28;20465;-68
2021/06/25 06:56:30;;;;;;;5.00;4.80;;;25.40;98.30;;;;;;4972784;28;20462;-68
2021/06/25 06:58:59;;;;;;;6.03;5.53;;;25.50;98.80;;;;;;4976715;28;20490;-67
2021/06/25 07:01:29;;;;;;;4.17;4.03;;;25.60;98.80;;;;;;4982125;28;20581;-68
2021/06/25 07:03:55;;;;;;;4.57;4.37;;;25.80;98.20;;;;;;4975868;28;20478;-69
2021/06/25 07:06:22;;;;;;;4.27;4.07;;;25.90;97.90;;;;;;4975751;28;20474;-69
2021/06/25 07:08:50;;;;;;;4.10;4.00;;;26.00;98.10;;;;;;4956092;29;20583;-71
2021/06/25 07:11:17;;;;;;;4.20;4.10;;;26.20;97.60;;;;;;4967730;28;20494;-70
2021/06/25 07:13:43;;;;;;;4.70;4.50;;;25.80;97.20;;;;;;4975846;28;20474;-70
2021/06/25 07:16:13;;;;;;;3.83;3.73;;;25.60;97.40;;;;;;4979979;28;20499;-70
2021/06/25 07:18:40;;;;;;;3.73;3.67;;;25.60;97.20;;;;;;4976539;28;20457;-70
2021/06/25 07:21:07;;;;;;;3.57;3.47;;;25.20;97.50;;;;;;4976089;28;20490;-70
2021/06/25 07:23:34;;;;;;;3.80;3.70;;;24.70;98.00;;;;;;4974972;28;20477;-68
2021/06/25 07:26:02;;;;;;;3.90;3.83;;;24.20;98.30;;;;;;4982245;28;20473;-67
2021/06/25 07:28:29;;;;;;;3.67;3.50;;;23.90;98.60;;;;;;4994644;28;20497;-69
2021/06/25 07:30:55;;;;;;;4.00;3.70;;;23.50;99.40;;;;;;4987847;28;20486;-68
2021/06/25 07:33:22;;;;;;;3.60;3.50;;;23.40;99.70;;;;;;4975072;28;20862;-68
2021/06/25 07:35:49;;;;;;;3.97;3.87;;;23.70;99.10;;;;;;4979637;28;20458;-68
2021/06/25 07:38:16;;;;;;;3.53;3.43;;;23.70;98.10;;;;;;4993646;28;20962;-67
2021/06/25 07:40:42;;;;;;;3.47;3.37;;;23.70;98.50;;;;;;4974284;28;20538;-67
2021/06/25 07:43:11;;;;;;;4.00;3.90;;;23.90;98.40;;;;;;4974621;28;20567;-69
2021/06/25 07:45:37;;;;;;;3.47;3.43;;;23.90;98.10;;;;;;4989194;28;20463;-67
2021/06/25 07:48:04;;;;;;;4.40;4.00;;;23.90;98.70;;;;;;4967768;28;20487;-67
2021/06/25 07:50:31;;;;;;;2.83;2.80;;;24.00;99.10;;;;;;4993344;28;20831;-67
2021/06/25 07:52:58;;;;;;;3.57;3.50;;;24.30;99.20;;;;;;4985183;28;20486;-68
2021/06/25 07:55:25;;;;;;;3.33;3.23;;;24.80;98.00;;;;;;4994675;28;20509;-68
2021/06/25 07:57:51;;;;;;;2.23;2.23;;;25.00;97.90;;;;;;4984867;28;20469;-67
2021/06/25 08:00:20;;;;;;;2.80;2.80;;;24.80;97.10;;;;;;4975376;28;20469;-68
2021/06/25 08:02:46;;;;;;;3.27;3.17;;;25.00;97.60;;;;;;4974538;28;20885;-67
2021/06/25 08:05:13;;;;;;;2.60;2.50;;;24.70;98.00;;;;;;4975363;28;20462;-67
2021/06/25 08:07:40;;;;;;;3.00;2.80;;;24.20;97.70;;;;;;4974406;28;20492;-67
2021/06/25 08:10:08;;;;;;;2.30;2.30;;;24.10;97.90;;;;;;4991570;28;20463;-68
2021/06/25 08:12:35;;;;;;;2.20;2.20;;;24.20;98.20;;;;;;4987958;28;20483;-67
2021/06/25 08:15:02;;;;;;;1.87;1.87;;;24.30;98.00;;;;;;4983179;28;20474;-67
2021/06/25 08:17:30;;;;;;;2.33;2.27;;;24.60;97.80;;;;;;4985895;28;20522;-67
2021/06/25 08:19:57;;;;;;;2.03;2.03;;;24.90;96.40;;;;;;4978476;28;20462;-67
2021/06/25 08:22:23;;;;;;;2.90;2.90;;;24.80;96.00;;;;;;4972680;28;20551;-67
2021/06/25 08:24:50;;;;;;;2.00;1.93;;;25.00;96.60;;;;;;4987560;28;20488;-68
2021/06/25 08:27:17;;;;;;;2.40;2.40;;;25.30;96.10;;;;;;4993197;28;20465;-67
2021/06/25 08:29:44;;;;;;;1.97;1.97;;;25.10;95.90;;;;;;4980182;28;20470;-66
2021/06/25 08:32:10;;;;;;;2.13;2.13;;;25.20;96.20;;;;;;4992439;28;20495;-67
2021/06/25 08:34:38;;;;;;;1.90;1.90;;;25.00;96.40;;;;;;4973827;28;20464;-67
2021/06/25 08:37:05;;;;;;;1.87;1.87;;;25.00;96.50;;;;;;4974055;28;20462;-66
2021/06/25 08:39:32;;;;;;;1.53;1.53;;;25.00;96.20;;;;;;4975059;28;20486;-71
2021/06/25 08:42:03;;;;;;;1.90;1.90;;;25.00;96.70;;;;;;4979736;28;20476;-71
2021/06/25 08:44:33;;;;;;;2.33;2.20;;;25.00;97.40;;;;;;4977399;28;20461;-72
2021/06/25 08:46:59;;;;;;;2.40;2.30;;;24.70;96.80;;;;;;4979182;28;20465;-70
2021/06/25 08:49:28;;;;;;;3.00;2.90;;;24.60;97.40;;;;;;4993410;28;20491;-70
2021/06/25 08:51:57;;;;;;;2.30;2.30;;;24.40;97.50;;;;;;4981763;28;20507;-69
2021/06/25 08:54:24;;;;;;;2.43;2.43;;;24.30;96.90;;;;;;4973471;28;20471;-70
2021/06/25 08:56:50;;;;;;;2.30;2.30;;;24.00;97.50;;;;;;4976843;28;20469;-67
2021/06/25 08:59:19;;;;;;;2.80;2.60;;;23.90;97.40;;;;;;4986100;28;20462;-67
2021/06/25 09:01:48;;;;;;;2.63;2.57;;;24.10;97.10;;;;;;4975265;28;20563;-67
2021/06/25 09:04:33;;;;;;;3.17;3.07;;;23.90;96.80;;;;;;4986935;28;20462;-67
2021/06/25 09:07:02;;;;;;;2.30;2.30;;;24.00;96.80;;;;;;4977408;28;20457;-69
2021/06/25 09:09:42;;;;;;;2.63;2.63;;;24.00;96.90;;;;;;4977038;28;20483;-68
2021/06/25 09:12:15;;;;;;;2.97;2.97;;;23.80;96.80;;;;;;4972609;28;20484;-70
2021/06/25 09:15:00;;;;;;;2.67;2.67;;;23.80;97.00;;;;;;4984523;28;20462;-70
2021/06/25 09:17:29;;;;;;;1.77;1.77;;;23.80;96.20;;;;;;4979485;28;20528;-70
2021/06/25 09:19:56;;;;;;;2.60;2.40;;;24.00;97.10;;;;;;4983384;28;20467;-70
2021/06/25 09:22:24;;;;;;;2.13;2.13;;;24.00;96.20;;;;;;4977843;28;20792;-70
2021/06/25 09:25:00;;;;;;;2.93;2.83;;;24.10;97.20;;;;;;4983975;28;20578;-70
2021/06/25 09:27:28;;;;;;;2.47;2.47;;;24.40;96.10;;;;;;4977931;28;20804;-71
2021/06/25 09:29:55;;;;;;;2.53;2.43;;;24.40;96.00;;;;;;4984214;28;20461;-72
2021/06/25 09:32:22;;;;;;;2.27;2.27;;;24.40;95.70;;;;;;4971157;28;20527;-71
2021/06/25 09:34:52;;;;;;;2.87;2.77;;;24.30;95.80;;;;;;4973153;28;20467;-70
2021/06/25 09:37:21;;;;;;;2.60;2.50;;;24.30;96.10;;;;;;4973067;28;20888;-69
2021/06/25 09:40:01;;;;;;;3.10;3.00;;;24.30;96.30;;;;;;4970878;28;20535;-68
2021/06/25 09:42:28;;;;;;;3.20;3.20;;;24.40;96.40;;;;;;4964815;28;20486;-69
2021/06/25 09:44:59;;;;;;;2.90;2.90;;;24.20;96.70;;;;;;4975653;28;20970;-70
2021/06/25 09:47:30;;;;;;;3.20;3.10;;;24.10;97.20;;;;;;4971433;28;20473;-70
2021/06/25 09:50:09;;;;;;;3.03;3.03;;;24.20;96.90;;;;;;4974743;28;20471;-70
2021/06/25 09:52:53;;;;;;;4.00;3.70;;;24.20;96.90;;;;;;4979505;28;20979;-68
2021/06/25 09:55:23;;;;;;;3.47;3.37;;;24.00;96.90;;;;;;4976787;28;20480;-69
2021/06/25 09:58:22;;;;;;;3.23;3.20;;;24.10;97.30;;;;;;4975555;28;20463;-69
2021/06/25 10:03:36;;;;;;;3.60;3.50;;;24.10;96.90;;;;;;4982173;28;20547;-66
2021/06/25 10:06:07;;;;;;;3.80;3.70;;;24.20;97.90;;;;;;4977094;28;20475;-66
2021/06/25 10:08:34;;;;;;;3.97;3.77;;;24.10;97.20;;;;;;4981816;28;20487;-68
2021/06/25 10:11:04;;;;;;;3.30;3.30;;;24.00;97.10;;;;;;4976082;28;20488;-66
2021/06/25 10:13:32;;;;;;;4.13;4.03;;;24.00;96.90;;;;;;4983059;28;20463;-66
2021/06/25 10:15:59;;;;;;;4.47;4.27;;;23.70;96.80;;;;;;4976519;28;20475;-67
2021/06/25 10:18:29;;;;;;;4.20;3.90;;;23.50;97.60;;;;;;4983292;28;20454;-66
2021/06/25 10:20:57;;;;;;;4.77;4.50;;;23.60;97.20;;;;;;4972250;28;20488;-68
2021/06/25 10:23:25;;;;;;;3.93;3.63;;;23.60;96.50;;;;;;4982201;28;20463;-68
2021/06/25 10:25:52;;;;;;;4.30;4.20;;;23.60;97.70;;;;;;4974924;28;20483;-68
2021/06/25 10:28:21;;;;;;;4.70;4.53;;;23.70;97.30;;;;;;4981123;28;20479;-67
2021/06/25 10:30:48;;;;;;;4.60;4.50;;;23.60;97.40;;;;;;4976003;28;20475;-67
2021/06/25 10:33:14;;;;;;;4.50;4.40;;;23.50;97.40;;;;;;4982662;28;20460;-68
2021/06/25 10:35:44;;;;;;;4.40;4.30;;;23.40;97.30;;;;;;4976529;28;20467;-67
2021/06/25 10:38:11;;;;;;;4.93;4.73;;;23.60;97.40;;;;;;4982103;28;20465;-69
2021/06/25 10:40:38;;;;;;;4.77;4.67;;;23.70;97.70;;;;;;4976226;28;20990;-67
2021/06/25 10:43:05;;;;;;;5.20;5.00;;;23.30;97.50;;;;;;4982122;28;20482;-68
2021/06/25 10:45:41;;;;;;;4.33;4.13;;;23.10;98.10;;;;;;4976438;28;20479;-68
2021/06/25 10:48:08;;;;;;;4.80;4.60;;;23.10;98.60;;;;;;4986453;28;20825;-68
2021/06/25 10:50:35;;;;;;;4.93;4.80;;;22.90;98.50;;;;;;4995500;28;20896;-68
2021/06/25 10:53:20;;;;;;;4.40;4.30;;;22.80;98.70;;;;;;4987559;28;20479;-67
2021/06/25 10:56:05;;;;;;;4.80;4.50;;;22.90;98.90;;;;;;4993920;28;20458;-69
2021/06/25 10:58:33;;;;;;;5.10;4.90;;;23.00;98.80;;;;;;4982516;28;20546;-70
2021/06/25 11:01:04;;;;;;;6.20;5.60;;;22.90;99.30;;;;;;4995074;28;20478;-70
2021/06/25 11:03:44;;;;;;;5.70;5.30;;;23.10;97.80;;;;;;4988495;28;20483;-69
2021/06/25 11:06:52;;;;;;;5.10;4.73;;;23.20;97.40;;;;;;4994537;28;20470;-68
2021/06/25 11:09:19;;;;;;;5.10;4.80;;;23.30;97.50;;;;;;4954835;28;21034;-69
2021/06/25 11:11:46;;;;;;;4.77;4.60;;;23.20;97.90;;;;;;4972260;28;20480;-69
2021/06/25 11:14:26;;;;;;;5.50;5.30;;;23.10;98.40;;;;;;4975472;28;20948;-69
2021/06/25 11:16:54;;;;;;;5.10;4.80;;;23.10;98.90;;;;;;4977024;28;20468;-70
2021/06/25 11:19:40;;;;;;;4.90;4.60;;;23.20;99.10;;;;;;4976849;28;20456;-70
2021/06/25 11:22:39;;;;;;;5.20;5.00;;;23.30;98.70;;;;;;4968568;28;20507;-69
2021/06/25 11:25:11;;;;;;;4.63;4.53;;;23.30;98.70;;;;;;4971315;28;20941;-70
2021/06/25 11:28:09;;;;;;;4.50;4.40;;;23.60;98.80;;;;;;4981135;28;20460;-70
2021/06/25 11:30:58;;;;;;;4.93;4.83;;;23.50;99.20;;;;;;4974609;28;20484;-70
2021/06/25 11:33:28;;;;;;;6.03;5.73;;;23.40;98.70;;;;;;4974985;28;20463;-70
2021/06/25 11:35:55;;;;;;;5.07;4.83;;;23.30;99.20;;;;;;4974666;28;20459;-68
2021/06/25 11:38:56;;;;;;;5.53;5.33;;;23.30;98.80;;;;;;4974212;28;20456;-68
2021/06/25 11:41:25;;;;;;;5.03;4.83;;;23.30;99.90;;;;;;4955093;28;20841;-67
2021/06/25 11:43:53;;;;;;;5.73;5.53;;;23.40;99.80;;;;;;4969372;28;20464;-67
2021/06/25 11:46:20;;;;;;;5.47;5.10;;;23.50;99.60;;;;;;4969042;28;20464;-68
2021/06/25 11:48:49;;;;;;;5.10;4.93;;;23.70;99.30;;;;;;4973872;28;20494;-67
2021/06/25 11:51:18;;;;;;;5.43;5.23;;;23.50;99.20;;;;;;4962383;28;20500;-69
2021/06/25 11:53:46;;;;;;;5.10;4.80;;;23.60;99.40;;;;;;4974458;28;20905;-69
2021/06/25 11:56:19;;;;;;;4.50;4.20;;;23.70;99.70;;;;;;4973768;28;20924;-69
2021/06/25 11:59:00;;;;;;;5.63;5.43;;;23.90;99.80;;;;;;4974346;28;20471;-68
2021/06/25 12:01:29;;;;;;;5.43;5.10;;;24.00;98.90;;;;;;4974167;28;20495;-70
2021/06/25 12:03:59;;;;;;;5.03;4.83;;;24.30;98.70;;;;;;4975112;28;20471;-69
2021/06/25 12:06:26;;;;;;;5.07;4.87;;;24.40;98.70;;;;;;4974130;28;20465;-67
2021/06/25 12:09:00;;;;;;;4.50;4.30;;;24.40;96.90;;;;;;4973950;28;20491;-67
2021/06/25 12:11:28;;;;;;;5.73;5.20;;;24.40;97.20;;;;;;4974037;28;20506;-68
2021/06/25 12:14:01;;;;;;;5.20;5.00;;;24.30;97.00;;;;;;4974299;28;20466;-67
2021/06/25 12:16:28;;;;;;;5.23;4.90;;;24.30;97.10;;;;;;4974084;28;20461;-68
2021/06/25 12:18:55;;;;;;;6.13;5.90;;;24.40;97.90;;;;;;4974376;28;20466;-70
2021/06/25 12:21:23;;;;;;;6.00;5.60;;;24.20;97.90;;;;;;4973110;28;20594;-70
2021/06/25 12:23:54;;;;;;;5.57;5.27;;;24.10;97.90;;;;;;4973875;28;20472;-69
2021/06/25 12:26:22;;;;;;;5.40;5.30;;;24.00;98.00;;;;;;4972869;28;20932;-70
2021/06/25 12:28:50;;;;;;;5.27;5.00;;;23.90;98.60;;;;;;4974055;28;20487;-67
2021/06/25 12:31:20;;;;;;;4.17;4.07;;;24.10;97.90;;;;;;4973832;28;20492;-67
2021/06/25 12:33:47;;;;;;;4.97;4.87;;;24.40;97.50;;;;;;4974280;28;20523;-68
2021/06/25 12:36:15;;;;;;;6.50;6.20;;;24.60;97.20;;;;;;4974064;28;20491;-71
2021/06/25 12:38:46;;;;;;;4.67;4.50;;;24.50;97.20;;;;;;4973144;28;20467;-68
2021/06/25 12:41:14;;;;;;;5.10;4.80;;;24.50;97.30;;;;;;4969705;28;20774;-68
2021/06/25 12:43:42;;;;;;;5.13;5.00;;;24.60;98.10;;;;;;4975514;28;20529;-67
2021/06/25 12:46:12;;;;;;;5.40;5.20;;;24.70;97.80;;;;;;4991893;28;20908;-68
2021/06/25 12:48:41;;;;;;;5.43;5.13;;;24.40;97.40;;;;;;4975508;28;20460;-68
2021/06/25 12:51:10;;;;;;;5.70;5.20;;;24.30;97.90;;;;;;4972858;28;20483;-67
2021/06/25 12:53:38;;;;;;;6.67;6.30;;;24.50;98.60;;;;;;4972395;28;20980;-67
2021/06/25 12:56:11;;;;;;;5.30;5.00;;;24.40;97.80;;;;;;4973140;28;20463;-66
2021/06/25 12:58:40;;;;;;;6.13;5.90;;;24.30;98.00;;;;;;4971059;28;20471;-70
2021/06/25 13:01:07;;;;;;;5.77;5.57;;;23.80;97.00;;;;;;4960231;28;20903;-71
2021/06/25 13:03:35;;;;;;;6.20;6.00;;;23.60;97.70;;;;;;4962233;28;20891;-70
2021/06/25 13:06:02;;;;;;;5.43;5.23;;;23.80;98.30;;;;;;4970941;28;20460;-70
2021/06/25 13:08:30;;;;;;;5.50;5.30;;;23.80;97.80;;;;;;4973049;28;20467;-67
2021/06/25 13:10:59;;;;;;;6.70;6.40;;;23.80;98.10;;;;;;4971639;28;20485;-68
2021/06/25 13:13:29;;;;;;;5.80;5.50;;;23.60;98.00;;;;;;4973492;28;20471;-67
2021/06/25 13:15:58;;;;;;;6.33;5.93;;;23.60;98.80;;;;;;4966161;28;20477;-67
2021/06/25 13:18:28;;;;;;;5.30;4.93;;;23.60;98.10;;;;;;4958594;28;20459;-70
2021/06/25 13:21:41;;;;;;;4.93;4.63;;;23.70;98.70;;;;;;4973039;28;20468;-70
2021/06/25 13:24:27;;;;;;;5.13;4.93;;;23.90;98.40;;;;;;4937917;28;20455;-72
2021/06/25 13:26:55;;;;;;;5.80;5.50;;;24.00;98.30;;;;;;4973188;28;20579;-71
2021/06/25 13:29:43;;;;;;;5.80;5.60;;;23.90;96.50;;;;;;4972750;28;20487;-67
2021/06/25 13:32:13;;;;;;;5.27;5.07;;;23.90;96.90;;;;;;4972540;28;20518;-67
2021/06/25 13:34:40;;;;;;;6.07;5.73;;;24.00;97.70;;;;;;4971718;28;20456;-67
2021/06/25 13:37:07;;;;;;;5.37;5.17;;;24.00;97.40;;;;;;4972772;28;20774;-67
2021/06/25 13:39:37;;;;;;;5.17;4.97;;;24.00;97.00;;;;;;4971194;28;20451;-67
2021/06/25 13:42:15;;;;;;;5.40;5.00;;;24.20;97.10;;;;;;4970541;28;20484;-67
2021/06/25 13:44:44;;;;;;;6.37;6.10;;;24.50;97.20;;;;;;4972617;28;20553;-69
2021/06/25 13:47:12;;;;;;;6.20;6.00;;;24.60;97.20;;;;;;4970345;28;20478;-69
2021/06/25 13:49:40;;;;;;;6.10;5.90;;;24.70;97.40;;;;;;4972383;28;20563;-69
2021/06/25 13:52:22;;;;;;;6.03;5.60;;;24.90;96.60;;;;;;4970189;28;20483;-69
2021/06/25 13:54:49;;;;;;;7.00;6.40;;;25.10;96.50;;;;;;4972248;28;20660;-69
2021/06/25 13:57:20;;;;;;;6.07;5.87;;;25.20;96.40;;;;;;4971516;28;20494;-70
2021/06/25 13:59:48;;;;;;;6.10;5.80;;;25.30;96.40;;;;;;4972531;28;22201;-70
2021/06/25 14:02:26;;;;;;;5.83;5.57;;;25.20;95.90;;;;;;4972125;28;20853;-69
2021/06/25 14:05:08;;;;;;;5.90;5.63;;;25.00;96.30;;;;;;4971190;28;20932;-72
2021/06/25 14:07:35;;;;;;;4.90;4.80;;;25.10;97.00;;;;;;4971352;28;20460;-70
2021/06/25 14:10:07;;;;;;;6.33;6.07;;;25.30;96.80;;;;;;4971476;28;20513;-70
2021/06/25 14:12:40;;;;;;;5.83;5.50;;;25.50;95.70;;;;;;4971870;28;20471;-69
2021/06/25 14:15:10;;;;;;;6.67;6.30;;;25.60;95.80;;;;;;4972809;28;20462;-69
2021/06/25 14:17:36;;;;;;;6.57;6.33;;;25.50;95.10;;;;;;4971520;28;20460;-70
2021/06/25 14:20:06;;;;;;;7.13;6.73;;;25.30;95.70;;;;;;4972662;28;20460;-70
2021/06/25 14:22:32;;;;;;;5.53;5.23;;;25.10;96.00;;;;;;4968249;28;20476;-69
2021/06/25 14:24:59;;;;;;;6.90;6.40;;;24.90;96.50;;;;;;4972250;28;20882;-67
2021/06/25 14:27:26;;;;;;;6.33;6.00;;;24.80;96.10;;;;;;4972144;28;20574;-66
2021/06/25 14:29:52;;;;;;;6.43;5.93;;;24.50;95.80;;;;;;4972975;28;20499;-66
2021/06/25 14:32:20;;;;;;;6.30;6.10;;;24.20;96.50;;;;;;4972819;28;20484;-66
2021/06/25 14:34:47;;;;;;;6.33;5.83;;;24.20;96.70;;;;;;4969786;28;20459;-67
2021/06/25 14:37:14;;;;;;;5.70;5.43;;;24.30;97.30;;;;;;4969692;28;20570;-66
2021/06/25 14:39:40;;;;;;;5.90;5.60;;;24.40;96.90;;;;;;4970148;28;20898;-70
2021/06/25 14:42:07;;;;;;;6.57;6.17;;;24.60;97.00;;;;;;4971664;28;20491;-69
2021/06/25 14:44:34;;;;;;;6.80;6.50;;;24.90;95.90;;;;;;4978016;28;20466;-71
2021/06/25 14:47:00;;;;;;;5.07;4.87;;;24.80;95.00;;;;;;4994658;28;20754;-71
2021/06/25 14:49:28;;;;;;;6.50;6.10;;;24.80;95.60;;;;;;4992552;28;21003;-70
2021/06/25 14:51:55;;;;;;;6.73;6.43;;;24.70;96.00;;;;;;4977367;28;20479;-68
2021/06/25 14:54:21;;;;;;;5.60;5.40;;;24.00;94.90;;;;;;4975920;28;20463;-69
2021/06/25 14:56:48;;;;;;;5.93;5.63;;;24.00;95.40;;;;;;4976003;28;20472;-67
2021/06/25 14:59:15;;;;;;;6.37;6.07;;;24.10;95.90;;;;;;4987600;28;20470;-68
2021/06/25 15:01:41;;;;;;;6.00;5.70;;;24.30;96.00;;;;;;4995433;28;20491;-66
2021/06/25 15:04:08;;;;;;;4.93;4.73;;;24.30;95.60;;;;;;4994628;28;20461;-67
2021/06/25 15:06:36;;;;;;;5.43;5.23;;;24.30;95.80;;;;;;4995104;28;20467;-67
2021/06/25 15:09:03;;;;;;;4.97;4.77;;;24.70;94.50;;;;;;4985227;28;20463;-68
2021/06/25 15:11:29;;;;;;;6.33;5.93;;;24.80;95.00;;;;;;4973847;28;20502;-68
2021/06/25 15:13:56;;;;;;;5.30;5.00;;;24.90;95.70;;;;;;4986595;28;20460;-68
2021/06/25 15:16:23;;;;;;;4.93;4.73;;;25.20;96.20;;;;;;4974835;28;20474;-68
2021/06/25 15:18:51;;;;;;;5.83;5.30;;;25.30;93.90;;;;;;4975319;28;20460;-69
2021/06/25 15:21:17;;;;;;;5.53;5.23;;;25.50;95.10;;;;;;4968253;28;20518;-68
2021/06/25 15:23:45;;;;;;;6.03;5.53;;;25.60;94.80;;;;;;4974004;28;20463;-69
2021/06/25 15:26:12;;;;;;;5.03;4.60;;;25.40;94.70;;;;;;4971908;28;21290;-71
2021/06/25 15:28:39;;;;;;;5.93;5.73;;;25.40;94.50;;;;;;4965036;28;20960;-71
2021/06/25 15:31:06;;;;;;;5.30;5.10;;;25.30;94.90;;;;;;4974894;28;20496;-70
2021/06/25 15:33:32;;;;;;;5.37;5.07;;;25.30;94.40;;;;;;4975335;28;20459;-70
2021/06/25 15:35:59;;;;;;;4.77;4.67;;;25.30;94.10;;;;;;4974523;28;20467;-70
2021/06/25 15:38:26;;;;;;;4.57;4.47;;;25.30;92.50;;;;;;4973696;28;20472;-68
2021/06/25 15:40:54;;;;;;;6.17;5.87;;;25.30;92.30;;;;;;4974862;28;20587;-69
2021/06/25 15:43:20;;;;;;;6.10;5.70;;;25.20;92.20;;;;;;4974787;28;20801;-68
2021/06/25 15:45:47;;;;;;;6.83;5.50;;;25.30;93.60;;;;;;4972308;28;21016;-70
2021/06/25 15:48:14;;;;;;;4.77;4.57;;;25.50;93.20;;;;;;4974796;28;20469;-72
2021/06/25 15:50:40;;;;;;;5.20;4.90;;;25.50;93.50;;;;;;4969091;28;20518;-69
2021/06/25 15:53:07;;;;;;;5.00;4.90;;;25.60;93.20;;;;;;4974525;28;20481;-71
2021/06/25 15:55:35;;;;;;;5.40;5.10;;;25.60;92.90;;;;;;4971025;28;20480;-69
2021/06/25 15:58:03;;;;;;;4.50;4.40;;;25.60;91.20;;;;;;4972813;28;20533;-70
2021/06/25 16:00:29;;;;;;;5.10;4.87;;;25.50;91.10;;;;;;4974197;28;20479;-70
2021/06/25 16:02:56;;;;;;;5.43;5.13;;;25.30;91.60;;;;;;4971503;28;20448;-70
2021/06/25 16:05:23;;;;;;;6.00;5.50;;;25.20;90.30;;;;;;4971083;28;20468;-68
2021/06/25 16:07:50;;;;;;;5.50;5.00;;;25.10;91.10;;;;;;4974953;28;20456;-68
2021/06/25 16:10:19;;;;;;;20.77;7.57;;;25.10;92.40;;;;;;4973325;28;20870;-68
2021/06/25 16:12:46;;;;;;;26.30;6.93;;;25.10;92.90;;;;;;4972176;28;20459;-71
2021/06/25 16:15:14;;;;;;;4.93;4.73;;;25.20;92.70;;;;;;4969628;28;20476;-69
2021/06/25 16:17:41;;;;;;;6.03;5.73;;;25.30;92.60;;;;;;4969432;28;20575;-69
2021/06/25 16:20:09;;;;;;;5.07;4.87;;;25.30;91.50;;;;;;4974247;28;20460;-69
2021/06/25 16:22:37;;;;;;;4.60;4.50;;;25.40;92.40;;;;;;4974388;28;20464;-70
2021/06/25 16:25:05;;;;;;;5.20;5.10;;;25.50;92.40;;;;;;4973852;28;20797;-68
2021/06/25 16:27:32;;;;;;;5.57;5.27;;;25.50;91.90;;;;;;4974311;28;20466;-69
2021/06/25 16:29:59;;;;;;;5.60;5.30;;;25.60;91.80;;;;;;4970650;28;20491;-70
2021/06/25 16:32:27;;;;;;;5.40;5.20;;;25.40;90.50;;;;;;4973801;28;21072;-68
2021/06/25 16:34:54;;;;;;;5.40;5.20;;;25.30;90.30;;;;;;4969374;28;20462;-67
2021/06/25 16:37:21;;;;;;;4.80;4.70;;;25.20;91.30;;;;;;4967995;28;20804;-69
2021/06/25 16:39:47;;;;;;;4.63;4.53;;;25.20;91.80;;;;;;4973268;28;20487;-69
2021/06/25 16:42:14;;;;;;;5.50;5.20;;;25.40;91.90;;;;;;4973227;28;20491;-69
2021/06/25 16:44:41;;;;;;;4.73;4.53;;;25.40;91.60;;;;;;4973850;28;20456;-69
2021/06/25 16:47:08;;;;;;;4.63;4.43;;;25.40;91.20;;;;;;4971802;28;20472;-68
2021/06/25 16:49:36;;;;;;;4.90;4.70;;;25.50;90.80;;;;;;4971732;28;20467;-69
2021/06/25 16:52:03;;;;;;;5.20;5.00;;;25.30;90.30;;;;;;4970869;28;20562;-67
2021/06/25 16:54:29;;;;;;;4.47;4.37;;;25.30;90.40;;;;;;4973018;28;20468;-69
2021/06/25 16:56:56;;;;;;;5.40;5.10;;;25.30;90.50;;;;;;4970416;28;20464;-72
2021/06/25 16:59:23;;;;;;;5.03;4.93;;;25.10;89.20;;;;;;4971706;28;20817;-70
2021/06/25 17:01:49;;;;;;;5.20;4.80;;;24.90;90.00;;;;;;4970780;28;20488;-70
2021/06/25 17:04:16;;;;;;;5.00;4.70;;;24.80;90.00;;;;;;4975514;28;20491;-71
2021/06/25 17:06:44;;;;;;;4.97;4.70;;;24.60;89.50;;;;;;4974593;28;20467;-69
2021/06/25 17:09:11;;;;;;;4.60;4.40;;;24.60;89.60;;;;;;4973849;28;20468;-71